Time,TemperatureF,DewpointF,PressureIn,WindDirection,WindDirectionDegrees,WindSpeedMPH,WindSpeedGustMPH,Humidity,HourlyPrecipIn,Conditions,Clouds,dailyrainin,SolarRadiationWatts/m^2,SoftwareType,DateUTC
2014-01-31 00:21:00,20.0,18.0,-100.00,North,-999,0.0,2.0,90,0.00,,,0.07,0.000000,,2014-01-31 07:21:00,
2014-01-31 00:32:00,20.0,18.0,-100.00,North,-999,0.0,2.0,90,0.00,,,0.07,0.000000,,2014-01-31 07:32:00,
2014-01-31 00:42:00,20.0,18.0,-100.00,North,-999,0.0,2.0,90,0.00,,,0.07,0.000000,,2014-01-31 07:42:00,
2014-01-31 00:52:00,20.0,18.0,-100.00,North,-999,0.0,2.0,90,0.00,,,0.07,0.000000,,2014-01-31 07:52:00,
2014-01-31 01:22:00,20.0,18.0,-100.00,North,-999,0.0,3.0,92,0.00,,,0.07,0.000000,,2014-01-31 08:22:00,
2014-01-31 01:32:00,20.0,18.0,-100.00,North,-999,0.0,3.0,92,0.00,,,0.07,0.000000,,2014-01-31 08:32:00,
2014-01-31 01:42:00,20.0,18.0,-100.00,North,-999,0.0,3.0,92,0.00,,,0.07,0.000000,,2014-01-31 08:42:00,
2014-01-31 01:52:00,20.0,18.0,-100.00,North,-999,0.0,3.0,92,0.00,,,0.07,0.000000,,2014-01-31 08:52:00,
2014-01-31 02:21:00,18.0,16.0,-100.00,North,-999,0.0,3.0,91,0.00,,,0.07,0.000000,,2014-01-31 09:21:00,
2014-01-31 02:33:00,18.0,16.0,-100.00,North,-999,0.0,3.0,91,0.00,,,0.07,0.000000,,2014-01-31 09:33:00,
2014-01-31 02:43:00,18.0,16.0,-100.00,North,-999,0.0,3.0,91,0.00,,,0.07,0.000000,,2014-01-31 09:43:00,
2014-01-31 02:53:00,18.0,16.0,-100.00,North,-999,0.0,3.0,91,0.00,,,0.07,0.000000,,2014-01-31 09:53:00,
2014-01-31 03:23:00,18.0,15.0,-100.00,East,96,1.0,2.0,89,0.00,,,0.07,0.000000,,2014-01-31 10:23:00,
2014-01-31 03:33:00,18.0,15.0,-100.00,East,96,1.0,2.0,89,0.00,,,0.07,0.000000,,2014-01-31 10:33:00,
2014-01-31 03:43:00,18.0,15.0,-100.00,East,96,1.0,2.0,89,0.00,,,0.07,0.000000,,2014-01-31 10:43:00,
2014-01-31 03:52:00,18.0,15.0,-100.00,East,96,1.0,2.0,89,0.00,,,0.07,0.000000,,2014-01-31 10:52:00,
2014-01-31 04:22:00,16.0,13.0,-100.00,East,92,3.0,4.0,88,0.00,,,0.07,0.000000,,2014-01-31 11:22:00,
2014-01-31 04:33:00,16.0,13.0,-100.00,East,92,3.0,4.0,88,0.00,,,0.07,0.000000,,2014-01-31 11:33:00,
2014-01-31 04:42:00,16.0,13.0,-100.00,East,92,3.0,4.0,88,0.00,,,0.07,0.000000,,2014-01-31 11:42:00,
2014-01-31 04:52:00,16.0,13.0,-100.00,East,92,3.0,4.0,88,0.00,,,0.07,0.000000,,2014-01-31 11:52:00,
2014-01-31 05:22:00,17.0,14.0,-100.00,ESE,105,2.0,4.0,88,0.00,,,0.07,0.000000,,2014-01-31 12:22:00,
2014-01-31 05:32:00,17.0,14.0,-100.00,ESE,105,2.0,4.0,88,0.00,,,0.07,0.000000,,2014-01-31 12:32:00,
2014-01-31 05:42:00,17.0,14.0,-100.00,ESE,105,2.0,4.0,88,0.00,,,0.07,0.000000,,2014-01-31 12:42:00,
2014-01-31 05:52:00,17.0,14.0,-100.00,ESE,105,2.0,4.0,88,0.00,,,0.07,0.000000,,2014-01-31 12:52:00,
2014-01-31 06:22:00,17.0,14.0,-100.00,East,100,2.0,4.0,87,0.00,,,0.07,0.000000,,2014-01-31 13:22:00,
2014-01-31 06:32:00,17.0,14.0,-100.00,East,100,2.0,4.0,87,0.00,,,0.07,0.000000,,2014-01-31 13:32:00,
2014-01-31 06:42:00,17.0,14.0,-100.00,East,100,2.0,4.0,87,0.00,,,0.07,0.000000,,2014-01-31 13:42:00,
2014-01-31 06:52:00,17.0,14.0,-100.00,East,100,2.0,4.0,87,0.00,,,0.07,0.000000,,2014-01-31 13:52:00,
2014-01-31 07:22:00,17.0,14.0,-100.00,East,98,3.0,4.0,86,0.00,,,0.07,0.000000,,2014-01-31 14:22:00,
2014-01-31 07:32:00,17.0,14.0,-100.00,East,98,3.0,4.0,86,0.00,,,0.07,0.000000,,2014-01-31 14:32:00,
2014-01-31 07:42:00,17.0,14.0,-100.00,East,98,3.0,4.0,86,0.00,,,0.07,0.000000,,2014-01-31 14:42:00,
2014-01-31 07:52:00,17.0,14.0,-100.00,East,98,3.0,4.0,86,0.00,,,0.07,0.000000,,2014-01-31 14:52:00,
2014-01-31 08:22:00,16.0,13.0,-100.00,East,98,4.0,5.0,87,0.00,,,0.07,0.000000,,2014-01-31 15:22:00,
2014-01-31 08:33:00,16.0,13.0,-100.00,East,98,4.0,5.0,87,0.00,,,0.07,0.000000,,2014-01-31 15:33:00,
2014-01-31 08:43:00,16.0,13.0,-100.00,East,98,4.0,5.0,87,0.00,,,0.07,0.000000,,2014-01-31 15:43:00,
2014-01-31 08:53:00,16.0,13.0,-100.00,East,98,4.0,5.0,87,0.00,,,0.07,0.000000,,2014-01-31 15:53:00,
2014-01-31 09:23:00,16.0,13.0,-100.00,East,94,4.0,5.0,86,0.00,,,0.07,14.000000,,2014-01-31 16:23:00,
2014-01-31 09:32:00,16.0,13.0,-100.00,East,94,4.0,5.0,86,0.00,,,0.07,14.000000,,2014-01-31 16:32:00,
2014-01-31 09:43:00,16.0,13.0,-100.00,East,94,4.0,5.0,86,0.00,,,0.07,14.000000,,2014-01-31 16:43:00,
2014-01-31 09:53:00,16.0,13.0,-100.00,East,94,4.0,5.0,86,0.00,,,0.07,14.000000,,2014-01-31 16:53:00,
2014-01-31 10:22:00,18.0,14.0,-100.00,East,98,3.0,5.0,85,0.00,,,0.07,54.000000,,2014-01-31 17:22:00,
2014-01-31 10:33:00,18.0,14.0,-100.00,East,98,3.0,5.0,85,0.00,,,0.07,54.000000,,2014-01-31 17:33:00,
2014-01-31 10:42:00,18.0,14.0,-100.00,East,98,3.0,5.0,85,0.00,,,0.07,54.000000,,2014-01-31 17:42:00,
2014-01-31 10:52:00,18.0,14.0,-100.00,East,98,3.0,5.0,85,0.00,,,0.07,54.000000,,2014-01-31 17:52:00,
2014-01-31 11:22:00,23.0,18.0,-100.00,East,95,3.0,5.0,80,0.00,,,0.07,153.000000,,2014-01-31 18:22:00,
2014-01-31 11:32:00,23.0,18.0,-100.00,East,95,3.0,5.0,80,0.00,,,0.07,153.000000,,2014-01-31 18:32:00,
2014-01-31 11:42:00,23.0,18.0,-100.00,East,95,3.0,5.0,80,0.00,,,0.07,153.000000,,2014-01-31 18:42:00,
2014-01-31 11:52:00,23.0,18.0,-100.00,East,95,3.0,5.0,80,0.00,,,0.07,153.000000,,2014-01-31 18:52:00,
2014-01-31 12:21:00,25.0,19.0,-100.00,East,90,3.0,5.0,76,0.00,,,0.07,181.000000,,2014-01-31 19:21:00,
2014-01-31 12:32:00,25.0,19.0,-100.00,East,90,3.0,5.0,76,0.00,,,0.07,181.000000,,2014-01-31 19:32:00,
2014-01-31 12:42:00,25.0,19.0,-100.00,East,90,3.0,5.0,76,0.00,,,0.07,181.000000,,2014-01-31 19:42:00,
2014-01-31 12:52:00,25.0,19.0,-100.00,East,90,3.0,5.0,76,0.00,,,0.07,181.000000,,2014-01-31 19:52:00,
2014-01-31 14:21:00,30.0,20.0,-100.00,West,278,2.0,6.0,66,-99.99,,,0.12,298.000000,,2014-01-31 21:21:00,
2014-01-31 14:34:00,30.0,20.0,-100.00,West,278,2.0,6.0,66,-99.99,,,0.12,298.000000,,2014-01-31 21:34:00,
2014-01-31 14:43:00,30.0,20.0,-100.00,West,278,2.0,6.0,66,-99.99,,,0.12,298.000000,,2014-01-31 21:43:00,
2014-01-31 14:53:00,30.0,20.0,-100.00,West,278,2.0,6.0,66,-99.99,,,0.12,298.000000,,2014-01-31 21:53:00,
2014-01-31 15:23:00,27.0,20.0,-100.00,WNW,292,2.0,6.0,75,0.01,,,0.13,205.000000,,2014-01-31 22:23:00,
2014-01-31 15:33:00,27.0,20.0,-100.00,WNW,292,2.0,6.0,75,0.01,,,0.13,205.000000,,2014-01-31 22:33:00,
2014-01-31 15:42:00,27.0,20.0,-100.00,WNW,292,2.0,6.0,75,0.01,,,0.13,205.000000,,2014-01-31 22:42:00,
2014-01-31 15:53:00,27.0,20.0,-100.00,WNW,292,2.0,6.0,75,0.01,,,0.13,205.000000,,2014-01-31 22:53:00,
2014-01-31 16:22:00,26.0,20.0,-100.00,West,269,1.0,5.0,79,0.00,,,0.08,79.000000,,2014-01-31 23:22:00,
2014-01-31 16:33:00,26.0,20.0,-100.00,West,269,1.0,5.0,79,0.00,,,0.08,79.000000,,2014-01-31 23:33:00,
2014-01-31 16:42:00,26.0,20.0,-100.00,West,269,1.0,5.0,79,0.00,,,0.08,79.000000,,2014-01-31 23:42:00,
2014-01-31 16:53:00,26.0,20.0,-100.00,West,269,1.0,5.0,79,0.00,,,0.08,79.000000,,2014-01-31 23:53:00,
2014-01-31 17:21:00,25.0,20.0,-100.00,WNW,283,1.0,5.0,82,0.00,,,0.06,50.000000,,2014-02-01 00:21:00,
2014-01-31 17:32:00,25.0,20.0,-100.00,WNW,283,1.0,5.0,82,0.00,,,0.06,50.000000,,2014-02-01 00:32:00,
2014-01-31 17:42:00,25.0,20.0,-100.00,WNW,283,1.0,5.0,82,0.00,,,0.06,50.000000,,2014-02-01 00:42:00,
2014-01-31 17:52:00,25.0,20.0,-100.00,WNW,283,1.0,5.0,82,0.00,,,0.06,50.000000,,2014-02-01 00:52:00,
2014-01-31 18:22:00,23.0,20.0,-100.00,West,275,1.0,4.0,88,0.00,,,0.06,12.000000,,2014-02-01 01:22:00,
2014-01-31 18:32:00,23.0,20.0,-100.00,West,275,1.0,4.0,88,0.00,,,0.06,12.000000,,2014-02-01 01:32:00,
2014-01-31 18:42:00,23.0,20.0,-100.00,West,275,1.0,4.0,88,0.00,,,0.06,12.000000,,2014-02-01 01:42:00,
2014-01-31 18:52:00,23.0,20.0,-100.00,West,275,1.0,4.0,88,0.00,,,0.06,12.000000,,2014-02-01 01:52:00,
2014-01-31 19:21:00,22.0,20.0,-100.00,WNW,285,1.0,4.0,92,0.00,,,0.06,0.000000,,2014-02-01 02:21:00,
2014-01-31 19:32:00,22.0,20.0,-100.00,WNW,285,1.0,4.0,92,0.00,,,0.06,0.000000,,2014-02-01 02:32:00,
2014-01-31 19:42:00,22.0,20.0,-100.00,WNW,285,1.0,4.0,92,0.00,,,0.06,0.000000,,2014-02-01 02:42:00,
2014-01-31 19:52:00,22.0,20.0,-100.00,WNW,285,1.0,4.0,92,0.00,,,0.06,0.000000,,2014-02-01 02:52:00,
2014-01-31 20:22:00,22.0,20.0,-100.00,WNW,295,1.0,4.0,92,0.00,,,0.06,0.000000,,2014-02-01 03:22:00,
2014-01-31 20:33:00,22.0,20.0,-100.00,WNW,295,1.0,4.0,92,0.00,,,0.06,0.000000,,2014-02-01 03:33:00,
2014-01-31 20:43:00,22.0,20.0,-100.00,WNW,295,1.0,4.0,92,0.00,,,0.06,0.000000,,2014-02-01 03:43:00,
2014-01-31 20:53:00,22.0,20.0,-100.00,WNW,295,1.0,4.0,92,0.00,,,0.06,0.000000,,2014-02-01 03:53:00,
2014-01-31 21:23:00,22.0,20.0,-100.00,North,-999,0.0,3.0,92,0.00,,,0.06,0.000000,,2014-02-01 04:23:00,
2014-01-31 21:33:00,22.0,20.0,-100.00,North,-999,0.0,3.0,92,0.00,,,0.06,0.000000,,2014-02-01 04:33:00,
2014-01-31 21:43:00,22.0,20.0,-100.00,North,-999,0.0,3.0,92,0.00,,,0.06,0.000000,,2014-02-01 04:43:00,
2014-01-31 21:52:00,22.0,20.0,-100.00,North,-999,0.0,3.0,92,0.00,,,0.06,0.000000,,2014-02-01 04:52:00,
2014-01-31 22:22:00,22.0,20.0,-100.00,North,-999,0.0,2.0,93,0.00,,,0.06,0.000000,,2014-02-01 05:22:00,
2014-01-31 22:32:00,22.0,20.0,-100.00,North,-999,0.0,2.0,93,0.00,,,0.06,0.000000,,2014-02-01 05:32:00,
2014-01-31 22:42:00,22.0,20.0,-100.00,North,-999,0.0,2.0,93,0.00,,,0.06,0.000000,,2014-02-01 05:42:00,
2014-01-31 22:53:00,22.0,20.0,-100.00,North,-999,0.0,2.0,93,0.00,,,0.06,0.000000,,2014-02-01 05:53:00,
2014-01-31 23:22:00,22.0,20.0,-100.00,North,-999,0.0,1.0,92,0.00,,,0.06,0.000000,,2014-02-01 06:22:00,
2014-01-31 23:32:00,22.0,20.0,-100.00,North,-999,0.0,1.0,92,0.00,,,0.06,0.000000,,2014-02-01 06:32:00,
2014-01-31 23:42:00,22.0,20.0,-100.00,North,-999,0.0,1.0,92,0.00,,,0.06,0.000000,,2014-02-01 06:42:00,
2014-01-31 23:52:00,22.0,20.0,-100.00,North,-999,0.0,1.0,92,0.00,,,0.06,0.000000,,2014-02-01 06:52:00,